Time;durP1;ratioP1;P1;durP2;ratioP2;P2;SDS_P1;SDS_P2;PMS_P1;PMS_P2;Temp;Humidity;BMP_temperature;BMP_pressure;BME280_temperature;BME280_humidity;BME280_pressure;Samples;Min_cycle;Max_cycle;Signal;HPM_P1;HPM_P2
2021/09/01 00:01:34;;;;;;;1041.95;911.08;;;;;;;14.86;69.41;93534.00;5090353;28;20497;-43
2021/09/01 00:04:00;;;;;;;1031.70;924.33;;;;;;;14.84;69.79;93534.56;5093752;28;20515;-42
2021/09/01 00:06:25;;;;;;;1040.53;919.45;;;;;;;14.85;69.52;93533.28;5094422;28;20416;-42
2021/09/01 00:08:51;;;;;;;1035.45;918.17;;;;;;;14.81;69.51;93541.25;5094401;28;20032;-42
2021/09/01 00:11:20;;;;;;;1022.28;908.08;;;;;;;14.85;70.05;93532.53;5094079;28;20019;-43
2021/09/01 00:13:46;;;;;;;1021.55;908.80;;;;;;;14.78;69.72;93536.13;5093143;28;20024;-43
2021/09/01 00:16:26;;;;;;;1041.28;925.65;;;;;;;14.77;69.30;93535.38;5093881;28;20519;-42
2021/09/01 00:18:53;;;;;;;1030.15;927.55;;;;;;;14.76;68.57;93530.41;5093921;28;20489;-44
2021/09/01 00:21:18;;;;;;;1057.75;951.53;;;;;;;14.59;68.69;93533.22;5093425;28;20165;-44
2021/09/01 00:23:44;;;;;;;1008.65;907.90;;;;;;;14.38;69.45;93539.91;5093780;28;20024;-42
2021/09/01 00:26:09;;;;;;;986.30;884.72;;;;;;;14.39;70.91;93535.84;5112315;28;20084;-42
2021/09/01 00:28:35;;;;;;;1006.70;907.65;;;;;;;14.36;70.34;93545.31;5114033;28;20039;-43
2021/09/01 00:31:00;;;;;;;991.83;895.58;;;;;;;14.29;70.61;93545.38;5114064;28;20016;-45
2021/09/01 00:33:26;;;;;;;998.13;896.72;;;;;;;14.10;71.01;93545.16;5113883;28;20027;-45
2021/09/01 00:35:51;;;;;;;995.95;897.20;;;;;;;14.19;70.99;93552.84;5113951;28;20020;-43
2021/09/01 00:38:16;;;;;;;993.05;895.38;;;;;;;14.03;70.83;93562.63;5113833;28;20016;-43
2021/09/01 00:40:42;;;;;;;1004.05;903.35;;;;;;;14.12;70.71;93559.22;5113783;28;20019;-44
2021/09/01 00:43:07;;;;;;;988.20;887.50;;;;;;;14.09;71.08;93558.31;5113704;28;20076;-44
2021/09/01 00:45:33;;;;;;;983.03;890.88;;;;;;;14.06;70.29;93567.78;5114036;28;20027;-45
2021/09/01 00:47:58;;;;;;;1004.03;906.65;;;;;;;13.89;70.99;93567.00;5112741;28;20411;-44
2021/09/01 00:50:25;;;;;;;990.90;899.65;;;;;;;13.83;71.31;93572.06;5102211;28;20051;-44
2021/09/01 00:52:51;;;;;;;984.08;892.97;;;;;;;13.68;71.21;93562.56;5093022;28;20052;-45
2021/09/01 00:55:20;;;;;;;987.72;894.65;;;;;;;13.76;71.47;93564.50;5092176;28;20037;-43
2021/09/01 00:57:46;;;;;;;997.17;905.63;;;;;;;13.79;71.62;93572.47;5093349;28;20055;-44
2021/09/01 01:00:16;;;;;;;992.25;904.17;;;;;;;13.77;70.99;93557.69;5091815;28;20051;-43
2021/09/01 01:02:42;;;;;;;966.63;880.95;;;;;;;13.68;71.65;93568.09;5093371;28;20024;-42
2021/09/01 01:05:08;;;;;;;993.63;903.05;;;;;;;13.60;71.38;93570.19;5092993;28;20397;-43
2021/09/01 01:07:34;;;;;;;999.05;905.55;;;;;;;13.31;71.74;93569.09;5093240;28;20024;-42
2021/09/01 01:09:59;;;;;;;990.30;894.35;;;;;;;13.50;72.13;93569.34;5091999;28;20023;-43
2021/09/01 01:12:25;;;;;;;986.00;894.17;;;;;;;13.58;71.62;93572.78;5112552;28;20012;-44
2021/09/01 01:14:52;;;;;;;982.63;889.13;;;;;;;13.56;71.51;93567.06;5113002;28;20020;-44
2021/09/01 01:17:18;;;;;;;986.30;897.83;;;;;;;13.56;71.71;93571.88;5113300;28;20027;-42
2021/09/01 01:19:49;;;;;;;966.50;875.58;;;;;;;13.34;72.18;93586.63;5113032;28;20401;-41
2021/09/01 01:22:16;;;;;;;977.17;883.63;;;;;;;13.38;72.13;93581.44;5112988;28;20106;-41
2021/09/01 01:24:57;;;;;;;983.05;896.63;;;;;;;13.34;72.04;93570.72;5106589;28;20031;-40
2021/09/01 01:27:39;;;;;;;946.25;865.65;;;;;;;13.21;72.71;93579.28;5092600;28;20103;-40
2021/09/01 01:30:21;;;;;;;953.08;873.83;;;;;;;13.21;73.32;93578.56;5090398;28;20024;-40
2021/09/01 01:32:49;;;;;;;977.50;890.80;;;;;;;13.07;73.19;93577.34;5092722;28;20408;-40
2021/09/01 01:35:25;;;;;;;928.97;846.95;;;;;;;13.13;72.61;93577.88;5092407;28;20020;-41
2021/09/01 01:37:51;;;;;;;929.92;846.88;;;;;;;13.09;73.36;93577.53;5092699;28;20020;-41
2021/09/01 01:40:16;;;;;;;958.42;875.85;;;;;;;13.08;73.45;93579.53;5092241;28;20031;-40
2021/09/01 01:42:42;;;;;;;918.63;839.95;;;;;;;13.16;72.63;93579.53;5092209;28;20066;-41
2021/09/01 01:45:09;;;;;;;962.75;877.13;;;;;;;13.09;73.14;93578.25;5092446;28;20035;-43
2021/09/01 01:47:34;;;;;;;926.60;847.25;;;;;;;13.09;72.82;93581.03;5092130;28;20449;-42
2021/09/01 01:49:59;;;;;;;944.28;859.95;;;;;;;13.03;72.91;93576.97;5092084;28;20045;-42
2021/09/01 01:52:25;;;;;;;923.92;841.92;;;;;;;13.05;72.58;93574.41;5091942;28;20525;-43
2021/09/01 01:54:50;;;;;;;965.92;883.10;;;;;;;13.05;73.43;93577.91;5092039;28;20489;-42
2021/09/01 01:57:16;;;;;;;941.55;860.90;;;;;;;13.13;73.42;93570.28;5092234;28;20031;-44
2021/09/01 01:59:41;;;;;;;952.50;870.75;;;;;;;13.06;72.34;93573.13;5092171;28;20019;-42
2021/09/01 02:02:07;;;;;;;945.08;860.88;;;;;;;13.04;72.22;93572.91;5091849;28;20413;-42
2021/09/01 02:04:32;;;;;;;945.70;864.30;;;;;;;12.90;72.76;93564.09;5092097;28;20493;-42
2021/09/01 02:06:57;;;;;;;937.35;857.33;;;;;;;12.92;72.71;93561.50;5092113;28;20090;-44
2021/09/01 02:09:23;;;;;;;933.40;852.92;;;;;;;12.85;73.25;93553.94;5091687;28;20551;-42
2021/09/01 02:11:48;;;;;;;953.35;872.30;;;;;;;12.90;73.72;93555.78;5091907;28;20554;-42
2021/09/01 02:14:14;;;;;;;938.75;856.03;;;;;;;12.77;73.19;93556.03;5091615;28;20078;-43
2021/09/01 02:16:39;;;;;;;933.97;852.30;;;;;;;12.88;73.37;93550.06;5102477;28;20032;-42
2021/09/01 02:19:04;;;;;;;916.85;834.83;;;;;;;12.88;72.77;93552.84;5111818;28;20041;-42
2021/09/01 02:21:30;;;;;;;946.35;865.38;;;;;;;12.81;72.19;93553.59;5111665;28;20015;-42
2021/09/01 02:23:55;;;;;;;928.70;851.88;;;;;;;12.73;73.72;93556.41;5111787;28;20027;-42
2021/09/01 02:26:21;;;;;;;915.63;842.67;;;;;;;12.74;73.44;93562.69;5090543;28;20028;-42
2021/09/01 02:28:46;;;;;;;916.75;839.05;;;;;;;12.70;73.44;93552.00;5091557;28;20020;-42
2021/09/01 02:31:12;;;;;;;912.72;835.65;;;;;;;12.62;73.43;93556.09;5091239;28;20012;-43
2021/09/01 02:33:37;;;;;;;958.38;877.83;;;;;;;12.55;74.10;93562.38;5091471;28;20035;-42
2021/09/01 02:36:03;;;;;;;943.45;867.13;;;;;;;12.56;73.82;93550.75;5091398;28;20032;-42
2021/09/01 02:38:28;;;;;;;941.78;862.70;;;;;;;12.50;73.91;93557.78;5091108;28;20024;-42
2021/09/01 02:40:54;;;;;;;941.25;863.80;;;;;;;12.52;73.85;93567.00;5091069;28;20108;-42
2021/09/01 02:43:19;;;;;;;976.67;897.95;;;;;;;12.56;74.51;93550.03;5091243;28;20024;-42
2021/09/01 02:45:44;;;;;;;922.65;844.63;;;;;;;12.61;74.33;93555.34;5091418;28;20024;-42
2021/09/01 02:48:10;;;;;;;954.35;875.65;;;;;;;12.65;74.50;93554.94;5091193;28;20020;-43
2021/09/01 02:50:35;;;;;;;925.97;848.88;;;;;;;12.73;73.98;93558.44;5090196;28;20031;-43
2021/09/01 02:53:01;;;;;;;918.67;842.40;;;;;;;12.67;72.46;93561.41;5091215;28;20024;-43
2021/09/01 02:55:26;;;;;;;915.22;841.10;;;;;;;12.53;72.77;93562.22;5090829;28;20519;-42
2021/09/01 02:57:52;;;;;;;928.88;854.42;;;;;;;12.51;74.41;93567.56;5090204;28;20059;-42
2021/09/01 03:00:17;;;;;;;924.05;849.75;;;;;;;12.45;74.25;93565.00;5090114;28;20020;-42
2021/09/01 03:02:42;;;;;;;915.45;841.90;;;;;;;12.41;73.76;93567.41;5090740;28;20024;-43
2021/09/01 03:05:09;;;;;;;927.75;854.42;;;;;;;12.40;74.03;93554.13;5090628;28;20116;-42
2021/09/01 03:07:34;;;;;;;966.70;886.42;;;;;;;12.38;74.66;93571.31;5090600;28;20552;-42
2021/09/01 03:10:00;;;;;;;924.72;851.92;;;;;;;12.35;73.87;93579.97;5090622;28;20024;-42
2021/09/01 03:12:25;;;;;;;961.28;882.55;;;;;;;12.37;74.13;93580.16;5090627;28;20039;-42
2021/09/01 03:14:50;;;;;;;991.08;909.83;;;;;;;12.33;74.86;93580.53;5090613;28;20023;-42
2021/09/01 03:17:16;;;;;;;939.63;865.83;;;;;;;12.20;74.55;93583.50;5090427;28;20020;-42
2021/09/01 03:19:41;;;;;;;935.92;858.28;;;;;;;12.30;74.18;93578.88;5090547;28;20036;-42
2021/09/01 03:22:07;;;;;;;917.58;842.38;;;;;;;12.30;74.04;93586.47;5090445;28;20020;-43
2021/09/01 03:24:32;;;;;;;957.20;880.40;;;;;;;12.25;74.57;93588.13;5095655;28;20020;-43
2021/09/01 03:26:57;;;;;;;985.28;900.30;;;;;;;12.35;74.88;93594.56;5110980;28;20019;-43
2021/09/01 03:29:23;;;;;;;926.15;850.15;;;;;;;12.31;73.99;93587.91;5110454;28;20023;-43
2021/09/01 03:31:48;;;;;;;941.50;864.70;;;;;;;12.34;74.12;93592.34;5110732;28;20094;-43
2021/09/01 03:34:14;;;;;;;979.70;900.75;;;;;;;12.09;74.47;93606.03;5110987;28;20031;-44
2021/09/01 03:36:39;;;;;;;952.40;870.78;;;;;;;12.15;74.36;93601.78;5105563;28;20532;-43
2021/09/01 03:39:05;;;;;;;923.95;846.92;;;;;;;12.10;73.89;93588.91;5109736;28;20028;-44
2021/09/01 03:41:30;;;;;;;985.78;906.80;;;;;;;12.15;74.70;93612.84;5108700;28;20506;-43
2021/09/01 03:43:56;;;;;;;994.15;911.83;;;;;;;12.21;74.93;93617.47;5109123;28;20487;-43
2021/09/01 03:46:21;;;;;;;983.08;903.80;;;;;;;12.17;74.25;93612.31;5109343;28;20016;-43
2021/09/01 03:48:47;;;;;;;956.75;881.38;;;;;;;12.24;74.29;93610.81;5109150;28;20023;-44
2021/09/01 03:51:12;;;;;;;957.03;878.67;;;;;;;12.25;74.30;93615.81;5090683;28;20036;-43
2021/09/01 03:53:37;;;;;;;928.50;852.83;;;;;;;12.24;74.12;93621.88;5089412;28;20485;-43
2021/09/01 03:56:03;;;;;;;961.95;884.65;;;;;;;12.23;74.16;93621.16;5099454;28;20030;-44
2021/09/01 03:58:29;;;;;;;956.78;881.90;;;;;;;12.07;74.77;93628.00;5110708;28;20027;-43
2021/09/01 04:00:54;;;;;;;967.95;886.75;;;;;;;12.14;74.39;93624.50;5110662;28;20012;-43
2021/09/01 04:03:19;;;;;;;993.78;912.78;;;;;;;12.17;74.47;93628.94;5110374;28;20047;-43
2021/09/01 04:05:45;;;;;;;971.22;892.72;;;;;;;12.21;74.66;93631.31;5110718;28;20035;-44
2021/09/01 04:08:10;;;;;;;967.72;889.05;;;;;;;12.18;74.57;93630.38;5110354;28;20024;-43
2021/09/01 04:10:36;;;;;;;977.97;899.80;;;;;;;12.19;74.78;93631.88;5110706;28;20488;-44
2021/09/01 04:13:01;;;;;;;958.92;881.65;;;;;;;12.19;74.63;93632.59;5110146;28;20046;-44
2021/09/01 04:15:27;;;;;;;998.88;917.45;;;;;;;12.19;75.30;93627.06;5110285;28;20076;-44
2021/09/01 04:17:52;;;;;;;954.13;878.45;;;;;;;12.23;74.16;93623.94;5109928;28;20028;-44
2021/09/01 04:20:18;;;;;;;984.97;905.95;;;;;;;12.21;74.31;93623.00;5109418;28;20024;-43
2021/09/01 04:22:43;;;;;;;984.45;904.58;;;;;;;12.22;74.34;93618.94;5110173;28;20016;-43
2021/09/01 04:25:09;;;;;;;955.08;878.15;;;;;;;12.21;74.23;93609.91;5099936;28;20024;-43
2021/09/01 04:27:35;;;;;;;955.92;877.50;;;;;;;12.06;74.62;93613.41;5094847;28;20020;-44
2021/09/01 04:30:00;;;;;;;964.72;885.80;;;;;;;12.06;74.92;93616.19;5104803;28;20031;-43
2021/09/01 04:32:26;;;;;;;1029.53;943.22;;;;;;;11.88;75.36;93606.25;5097580;28;20047;-43
2021/09/01 04:34:51;;;;;;;978.60;894.92;;;;;;;12.05;75.25;93623.03;5110047;28;20412;-44
2021/09/01 04:37:16;;;;;;;998.00;914.83;;;;;;;12.16;75.13;93622.66;5110010;28;20031;-43
2021/09/01 04:39:42;;;;;;;1047.32;958.17;;;;;;;12.05;75.17;93628.56;5110018;28;20024;-44
2021/09/01 04:42:07;;;;;;;1017.13;932.10;;;;;;;11.98;75.75;93625.78;5109887;28;20098;-43
2021/09/01 04:44:33;;;;;;;1072.22;979.83;;;;;;;12.22;75.71;93627.97;5110277;28;20035;-44
2021/09/01 04:46:59;;;;;;;982.03;900.97;;;;;;;12.24;75.41;93611.56;5110222;28;20028;-43
2021/09/01 04:49:25;;;;;;;977.60;894.72;;;;;;;12.49;75.25;93628.31;5109140;28;22799;-43
2021/09/01 04:51:51;;;;;;;969.30;890.63;;;;;;;12.55;75.05;93626.09;5093029;28;20047;-43
2021/09/01 04:54:16;;;;;;;964.60;881.95;;;;;;;12.62;74.99;93630.88;5093216;28;20028;-43
2021/09/01 04:56:42;;;;;;;1024.13;937.72;;;;;;;12.62;75.06;93630.88;5093116;28;20016;-43
2021/09/01 04:59:07;;;;;;;994.72;914.55;;;;;;;12.61;75.03;93635.66;5093368;28;20024;-43
2021/09/01 05:01:33;;;;;;;1020.30;937.55;;;;;;;12.65;74.82;93629.75;5093202;28;20521;-43
2021/09/01 05:03:58;;;;;;;1000.33;919.58;;;;;;;12.71;75.20;93635.84;5093324;28;20119;-44
2021/09/01 05:06:26;;;;;;;1023.10;939.83;;;;;;;12.72;74.95;93631.75;5103946;28;20047;-43
2021/09/01 05:08:52;;;;;;;997.70;915.70;;;;;;;12.80;75.69;93630.44;5113439;28;20171;-44
2021/09/01 05:11:18;;;;;;;999.53;915.45;;;;;;;12.82;74.97;93633.38;5113207;28;20491;-44
2021/09/01 05:13:43;;;;;;;990.60;907.60;;;;;;;12.90;75.07;93630.59;5105451;28;20028;-45
2021/09/01 05:16:08;;;;;;;964.53;880.00;;;;;;;12.98;74.72;93639.63;5092986;28;20024;-43
2021/09/01 05:18:34;;;;;;;981.13;895.28;;;;;;;13.06;74.30;93642.41;5092709;28;20028;-43
2021/09/01 05:21:00;;;;;;;992.15;906.53;;;;;;;13.09;74.13;93644.03;5092420;28;20016;-44
2021/09/01 05:23:33;;;;;;;974.72;888.10;;;;;;;13.12;74.58;93631.84;5091353;28;20024;-44
2021/09/01 05:26:05;;;;;;;1003.03;917.70;;;;;;;13.23;74.87;93634.91;5109910;28;20023;-45
2021/09/01 05:28:35;;;;;;;1014.97;927.42;;;;;;;13.29;75.73;93634.72;5113212;28;20098;-44
2021/09/01 05:31:04;;;;;;;1095.00;996.13;;;;;;;13.38;75.75;93628.59;5112729;28;20015;-44
2021/09/01 05:33:39;;;;;;;1109.38;997.78;;;;;;;13.44;76.68;93632.63;5112864;28;20026;-44
2021/09/01 05:36:05;;;;;;;1066.57;970.00;;;;;;;13.56;76.41;93641.22;5111517;28;20027;-44
2021/09/01 05:38:34;;;;;;;997.42;905.85;;;;;;;13.72;75.86;93633.56;5112715;28;20030;-43
2021/09/01 05:41:00;;;;;;;974.38;883.25;;;;;;;13.79;75.65;93643.88;5112898;28;20020;-45
2021/09/01 05:43:26;;;;;;;950.38;859.90;;;;;;;13.88;74.66;93634.94;5111242;28;20057;-44
2021/09/01 05:45:52;;;;;;;983.20;888.35;;;;;;;13.90;75.37;93633.06;5109405;28;20035;-45
2021/09/01 05:48:21;;;;;;;1003.55;907.53;;;;;;;13.91;74.45;93631.00;5112453;28;20020;-43
2021/09/01 05:50:52;;;;;;;992.97;895.10;;;;;;;13.99;74.98;93631.72;5097607;28;20501;-44
2021/09/01 05:53:18;;;;;;;978.88;881.88;;;;;;;14.04;74.74;93617.59;5091557;28;20032;-45
2021/09/01 05:55:51;;;;;;;961.75;860.63;;;;;;;14.23;74.64;93637.22;5091320;28;20058;-45
2021/09/01 05:58:20;;;;;;;983.95;891.00;;;;;;;14.26;74.99;93638.13;5092002;28;20028;-45
2021/09/01 06:00:52;;;;;;;980.15;879.42;;;;;;;14.34;74.61;93631.25;5091857;28;20501;-45
2021/09/01 06:03:29;;;;;;;981.75;882.83;;;;;;;14.42;74.22;93628.41;5108008;28;20036;-44
2021/09/01 06:05:56;;;;;;;1007.45;898.22;;;;;;;14.57;73.93;93633.06;5111272;28;20024;-45
2021/09/01 06:08:24;;;;;;;1039.53;922.97;;;;;;;14.67;73.21;93620.75;5112116;28;20100;-45
2021/09/01 06:10:50;;;;;;;1030.95;908.13;;;;;;;14.80;73.21;93628.75;5111932;28;20030;-44
2021/09/01 06:13:17;;;;;;;1088.25;948.88;;;;;;;14.88;71.68;93629.41;5110849;28;20519;-44
2021/09/01 06:15:43;;;;;;;1151.28;942.45;;;;;;;15.00;71.16;93627.63;5112042;28;20055;-43
2021/09/01 06:18:09;;;;;;;1124.43;942.60;;;;;;;15.14;70.17;93631.50;5112189;28;20051;-44
2021/09/01 06:20:36;;;;;;;1162.45;948.95;;;;;;;15.22;69.68;93628.66;5112156;28;20517;-44
2021/09/01 06:23:02;;;;;;;1195.82;971.05;;;;;;;15.19;69.10;93604.75;5102044;28;20507;-44
2021/09/01 06:25:28;;;;;;;1164.20;992.45;;;;;;;15.39;69.11;93616.75;5104848;28;20623;-42
2021/09/01 06:27:54;;;;;;;1207.95;977.75;;;;;;;15.49;69.14;93614.78;5099783;28;20055;-43
2021/09/01 06:30:20;;;;;;;1145.80;978.10;;;;;;;15.65;67.60;93627.19;5108704;28;20055;-45
2021/09/01 06:32:45;;;;;;;1154.07;981.78;;;;;;;15.72;66.34;93621.50;5111694;28;20030;-44
2021/09/01 06:35:12;;;;;;;1104.65;984.00;;;;;;;15.82;65.71;93625.09;5093699;28;20020;-44
2021/09/01 06:37:39;;;;;;;1215.53;995.08;;;;;;;15.91;66.34;93615.31;5108440;28;20023;-44
2021/09/01 06:40:05;;;;;;;1153.63;983.10;;;;;;;16.06;66.60;93619.91;5111565;28;20032;-44
2021/09/01 06:42:31;;;;;;;1092.10;978.25;;;;;;;16.18;64.53;93624.34;5111306;28;20023;-44
2021/09/01 06:44:56;;;;;;;1102.47;987.70;;;;;;;16.24;64.01;93601.78;5111514;28;20024;-43
2021/09/01 06:47:22;;;;;;;1068.28;959.63;;;;;;;16.42;63.52;93622.66;5111583;28;20023;-44
2021/09/01 06:49:48;;;;;;;1084.63;973.55;;;;;;;16.67;64.54;93612.03;5105020;28;20008;-44
2021/09/01 06:52:13;;;;;;;1010.90;922.40;;;;;;;16.99;61.11;93619.25;5090614;28;20035;-43
2021/09/01 06:54:38;;;;;;;1052.07;956.03;;;;;;;17.26;61.37;93620.53;5102091;28;20027;-44
2021/09/01 06:57:04;;;;;;;1085.60;980.67;;;;;;;17.95;61.31;93623.38;5111162;28;20407;-43
2021/09/01 06:59:30;;;;;;;933.92;865.03;;;;;;;18.70;56.66;93626.44;5105500;28;20072;-43
2021/09/01 07:01:55;;;;;;;956.05;886.33;;;;;;;19.42;54.54;93632.56;5104566;28;20419;-43
2021/09/01 07:04:21;;;;;;;933.05;861.10;;;;;;;19.49;52.96;93623.22;5110967;28;20031;-42
2021/09/01 07:06:46;;;;;;;904.30;841.72;;;;;;;19.76;54.36;93637.53;5111324;28;20027;-43
2021/09/01 07:09:11;;;;;;;792.97;743.50;;;;;;;19.73;52.31;93647.16;5110928;28;20020;-44
2021/09/01 07:11:37;;;;;;;794.88;744.90;;;;;;;19.52;52.66;93645.16;5110737;28;20020;-43
2021/09/01 07:14:02;;;;;;;876.35;816.90;;;;;;;19.44;52.54;93647.44;5110953;28;20453;-43
2021/09/01 07:16:28;;;;;;;885.97;827.03;;;;;;;19.31;53.39;93647.97;5110945;28;20024;-43
2021/09/01 07:18:53;;;;;;;913.60;848.10;;;;;;;19.37;54.54;93637.16;5111158;28;20023;-43
2021/09/01 07:21:19;;;;;;;910.95;847.47;;;;;;;19.43;54.08;93648.03;5109556;28;20038;-44
2021/09/01 07:23:45;;;;;;;954.35;883.95;;;;;;;20.14;56.49;93648.34;5110844;28;20480;-43
2021/09/01 07:26:11;;;;;;;768.92;722.00;;;;;;;21.21;48.94;93643.56;5110627;28;20034;-44
2021/09/01 07:28:38;;;;;;;777.65;731.10;;;;;;;22.83;47.10;93639.13;5099405;28;20415;-44
2021/09/01 07:31:05;;;;;;;726.20;683.25;;;;;;;24.42;42.47;93613.84;5087539;28;20056;-45
2021/09/01 07:33:30;;;;;;;176.98;167.55;;;;;;;26.57;37.70;93636.31;5088597;28;20103;-46
2021/09/01 07:35:56;;;;;;;18.83;17.75;;;;;;;28.41;33.77;93629.91;5089486;28;20106;-44
2021/09/01 07:38:21;;;;;;;3.25;2.58;;;;;;;29.55;30.75;93642.44;5089403;28;20039;-46
2021/09/01 07:40:47;;;;;;;2.45;2.10;;;;;;;30.47;28.25;93626.97;5088972;28;20024;-45
2021/09/01 07:43:12;;;;;;;2.78;2.28;;;;;;;31.33;27.57;93628.81;5088996;28;20047;-46
2021/09/01 07:45:38;;;;;;;3.35;1.90;;;;;;;31.49;26.84;93628.41;5089359;28;20024;-45
2021/09/01 07:48:04;;;;;;;2.85;2.10;;;;;;;31.75;27.17;93619.63;5090015;28;20016;-44
2021/09/01 07:50:32;;;;;;;3.03;2.00;;;;;;;32.11;26.81;93623.84;5089810;28;20135;-45
2021/09/01 07:52:58;;;;;;;4.77;1.77;;;;;;;32.87;25.68;93617.84;5089855;28;20428;-45
2021/09/01 07:55:24;;;;;;;3.05;2.20;;;;;;;30.05;28.58;93629.50;5090428;28;20024;-44
2021/09/01 07:57:49;;;;;;;5.00;2.55;;;;;;;28.34;31.58;93625.44;5090411;28;20031;-43
2021/09/01 08:00:15;;;;;;;2.35;2.13;;;;;;;26.35;33.82;93617.75;5090049;28;20024;-43
2021/09/01 08:02:41;;;;;;;6.20;2.60;;;;;;;26.22;35.51;93630.72;5109534;28;20541;-43
2021/09/01 08:05:07;;;;;;;4.97;2.63;;;;;;;26.46;34.77;93623.16;5110764;28;20027;-43
2021/09/01 08:07:33;;;;;;;3.55;2.78;;;;;;;26.61;33.18;93636.47;5110251;28;20023;-44
2021/09/01 08:09:59;;;;;;;3.80;1.80;;;;;;;25.96;34.98;93621.91;5110384;28;20073;-43
2021/09/01 08:12:24;;;;;;;3.92;2.13;;;;;;;25.68;36.39;93626.41;5110614;28;20012;-44
2021/09/01 08:14:50;;;;;;;2.88;1.73;;;;;;;27.47;32.20;93619.03;5110222;28;20023;-45
2021/09/01 08:17:16;;;;;;;11.20;1.63;;;;;;;29.41;29.81;93628.56;5106923;28;20036;-44
2021/09/01 08:19:42;;;;;;;1.83;1.48;;;;;;;30.38;26.69;93616.78;5098541;28;20453;-44
2021/09/01 08:22:08;;;;;;;1.45;1.33;;;;;;;30.80;26.45;93614.84;5092735;28;20027;-44
2021/09/01 08:24:34;;;;;;;4.10;2.08;;;;;;;29.11;29.14;93628.44;5097857;28;20409;-44
2021/09/01 08:26:59;;;;;;;2.03;1.83;;;;;;;29.30;30.34;93631.81;5104300;28;20020;-45
2021/09/01 08:29:25;;;;;;;3.03;1.65;;;;;;;30.47;27.86;93629.81;5104241;28;20020;-44
2021/09/01 08:31:50;;;;;;;3.78;2.63;;;;;;;30.88;27.35;93623.63;5112602;28;20027;-43
2021/09/01 08:34:16;;;;;;;2.17;1.75;;;;;;;30.97;26.72;93627.38;5114367;28;20028;-44
2021/09/01 08:36:41;;;;;;;5.60;2.42;;;;;;;31.76;26.00;93598.94;5096211;28;20451;-44
2021/09/01 08:39:06;;;;;;;2.15;1.48;;;;;;;32.73;23.96;93620.50;5093594;28;20577;-44
2021/09/01 08:41:32;;;;;;;3.35;2.10;;;;;;;33.23;23.55;93615.47;5094713;28;20409;-45
2021/09/01 08:43:59;;;;;;;1.65;1.55;;;;;;;32.56;24.28;93616.69;5093820;28;20401;-45
2021/09/01 08:46:25;;;;;;;3.72;2.67;;;;;;;30.31;26.06;93623.75;5092193;28;20039;-44
2021/09/01 08:48:51;;;;;;;1.48;1.38;;;;;;;28.64;27.79;93625.66;5093170;28;20028;-45
2021/09/01 08:51:17;;;;;;;2.38;1.77;;;;;;;28.87;29.47;93613.53;5092927;28;20036;-45
2021/09/01 08:53:43;;;;;;;2.22;1.83;;;;;;;30.21;27.37;93623.50;5093569;28;20030;-44
2021/09/01 08:56:09;;;;;;;3.15;1.50;;;;;;;31.06;26.18;93620.41;5094617;28;20157;-45
2021/09/01 08:58:34;;;;;;;2.50;1.33;;;;;;;32.30;23.96;93595.53;5099739;28;20028;-43
2021/09/01 09:00:59;;;;;;;3.40;1.80;;;;;;;32.71;23.83;93606.91;5112198;28;20037;-44
2021/09/01 09:03:25;;;;;;;1.40;1.30;;;;;;;32.56;24.00;93601.69;5110574;28;20100;-43
2021/09/01 09:05:50;;;;;;;2.65;1.95;;;;;;;31.99;24.57;93602.91;5097903;28;20421;-43
2021/09/01 09:08:16;;;;;;;4.05;1.90;;;;;;;32.99;23.85;93600.09;5090843;28;20036;-43
2021/09/01 09:17:34;;;;;;;1.20;1.10;;;;;;;33.93;20.58;93589.00;5094603;28;20043;-46
2021/09/01 09:20:05;;;;;;;0.98;0.98;;;;;;;32.03;24.71;93583.00;5093831;28;20026;-44
2021/09/01 09:22:39;;;;;;;1.70;1.35;;;;;;;33.17;24.25;93591.78;5093770;28;20115;-45
2021/09/01 09:25:13;;;;;;;1.48;1.38;;;;;;;32.43;23.58;93586.47;5102481;28;20081;-44
2021/09/01 09:27:46;;;;;;;4.18;1.42;;;;;;;32.63;25.64;93572.50;5113316;28;20032;-44
2021/09/01 09:30:21;;;;;;;2.25;1.30;;;;;;;32.99;23.26;93577.97;5096148;27;20512;-45
2021/09/01 09:33:03;;;;;;;2.47;1.27;;;;;;;31.61;24.91;93571.56;5092582;28;20031;-44
2021/09/01 09:35:47;;;;;;;2.15;1.95;;;;;;;30.51;26.15;93570.78;5093680;28;20062;-45
2021/09/01 09:38:13;;;;;;;3.35;1.80;;;;;;;30.04;27.61;93573.94;5092412;28;20596;-44
2021/09/01 09:40:39;;;;;;;1.38;1.27;;;;;;;29.75;27.41;93574.69;5092690;28;20024;-44
2021/09/01 09:43:17;;;;;;;2.50;1.30;;;;;;;30.49;27.45;93570.72;5092473;28;20020;-44
2021/09/01 09:45:44;;;;;;;3.88;1.40;;;;;;;30.62;26.34;93569.59;5093359;28;20398;-46
2021/09/01 09:48:09;;;;;;;1.40;1.27;;;;;;;30.11;26.60;93560.56;5093475;28;20024;-44
2021/09/01 09:50:35;;;;;;;4.47;1.15;;;;;;;29.35;27.84;93559.41;5090952;28;20027;-44
2021/09/01 09:53:01;;;;;;;1.20;1.10;;;;;;;29.06;29.40;93567.16;5094095;28;20028;-46
2021/09/01 09:55:26;;;;;;;1.67;1.40;;;;;;;28.58;29.55;93556.56;5112712;28;20059;-44
2021/09/01 09:57:56;;;;;;;4.22;1.33;;;;;;;27.86;28.49;93555.78;5112740;28;20047;-44
2021/09/01 10:00:26;;;;;;;1.30;1.05;;;;;;;29.12;28.78;93561.66;5111828;28;20405;-44
2021/09/01 10:02:52;;;;;;;1.13;0.98;;;;;;;30.81;28.01;93552.88;5112482;28;20031;-44
2021/09/01 10:05:23;;;;;;;1.95;1.40;;;;;;;31.20;25.36;93552.97;5112589;28;20027;-44
2021/09/01 10:07:49;;;;;;;3.65;1.30;;;;;;;30.55;27.00;93553.06;5110998;28;20454;-45
2021/09/01 10:10:15;;;;;;;1.33;1.10;;;;;;;31.23;26.38;93554.44;5098523;28;20099;-43
2021/09/01 10:12:45;;;;;;;1.10;1.10;;;;;;;30.18;27.27;93548.66;5109612;28;20068;-46
2021/09/01 10:15:32;;;;;;;1.77;1.60;;;;;;;29.93;26.28;93541.69;5112009;28;20501;-44
2021/09/01 10:18:00;;;;;;;2.45;1.25;;;;;;;30.59;28.55;93547.44;5112364;28;20028;-43
2021/09/01 10:20:26;;;;;;;1.50;1.40;;;;;;;31.53;26.49;93534.31;5111107;28;20089;-43
2021/09/01 10:22:59;;;;;;;1.38;1.27;;;;;;;31.66;25.63;93538.09;5109626;28;20023;-43
2021/09/01 10:25:41;;;;;;;1.85;1.48;;;;;;;28.39;28.81;93530.44;5093842;28;20024;-43
2021/09/01 10:28:35;;;;;;;3.97;1.45;;;;;;;28.77;30.68;93533.69;5097641;28;20085;-44
2021/09/01 10:31:10;;;;;;;2.85;1.95;;;;;;;27.44;31.70;93526.06;5100089;27;20040;-43
2021/09/01 10:33:41;;;;;;;2.65;1.73;;;;;;;28.24;31.27;93528.56;5098031;28;20039;-45
2021/09/01 10:36:25;;;;;;;2.38;1.63;;;;;;;29.33;31.50;93528.78;5091298;28;20028;-44
2021/09/01 10:38:51;;;;;;;5.13;1.33;;;;;;;30.71;27.01;93528.44;5091546;28;20158;-45
2021/09/01 10:41:30;;;;;;;0.98;0.88;;;;;;;31.62;26.27;93523.75;5091368;28;20066;-45
2021/09/01 10:43:55;;;;;;;;;;;;;;;30.71;26.08;93522.75;5092031;28;20107;-44
2021/09/01 10:46:21;;;;;;;1.70;1.52;;;;;;;30.52;26.75;93511.66;5090694;28;19998;-43
2021/09/01 10:48:55;;;;;;;2.10;1.90;;;;;;;30.46;27.86;93512.28;5092516;28;20484;-44
2021/09/01 10:51:29;;;;;;;14.38;2.80;;;;;;;29.50;28.73;93507.88;5109604;28;20528;-44
2021/09/01 10:53:54;;;;;;;3.65;1.60;;;;;;;29.48;28.34;93519.22;5108712;28;20020;-43
2021/09/01 10:56:19;;;;;;;2.45;1.50;;;;;;;30.32;27.81;93494.88;5096768;28;20428;-45
2021/09/01 10:58:46;;;;;;;5.72;1.40;;;;;;;29.39;26.77;93511.88;5096088;28;20036;-43
2021/09/01 11:01:24;;;;;;;3.20;0.90;;;;;;;29.16;27.47;93512.72;5088574;28;20027;-43
2021/09/01 11:03:59;;;;;;;2.23;1.50;;;;;;;30.34;27.33;93522.69;5103055;28;20080;-43
2021/09/01 11:06:26;;;;;;;4.32;1.30;;;;;;;29.93;25.92;93524.59;5111354;28;20437;-44
2021/09/01 11:09:04;;;;;;;1.88;1.42;;;;;;;30.47;25.85;93525.09;5105885;28;20111;-44
2021/09/01 11:11:52;;;;;;;3.83;1.05;;;;;;;29.84;25.79;93508.72;5093891;28;20106;-43
2021/09/01 11:14:33;;;;;;;4.47;1.40;;;;;;;29.76;28.31;93528.47;5100870;28;20389;-44
2021/09/01 11:16:59;;;;;;;2.60;1.35;;;;;;;30.84;25.85;93548.66;5096039;28;20466;-46